Yakima, Washington
Current Conditions -  °F | °C
As of 11:09 AM on Thursday 30 Oct 2014 (Local Time) from KYKM Reporting Station
Light Rain Light Rain  
Wind Chill: 53°   Ceiling: 3100
Heat Index: 53°   Visibility: 6mi
Dew Point: 50°   Wind: 0mph
Humidity: 89%   Direction: NA
Pressure: 30.03"   Gusts: NA
Location:  46.6°N, 120.5°W
Report Text: KYKM 301809Z 00000KT 6SM -RA BR FEW006 BKN031 OVC070 12/10 A3003 RMK AO2 P0000 T01170100
Loading
Personal Weather Stations






























Interactive Weather Map
Tropical Storm Tracking
New forecast layout! Learn more

10-Day Weather Forecast

Advertisements
Track Severe Weather on mobile